sensor_id;sensor_type;location;lat;lon;timestamp;P1;durP1;ratioP1;P2;durP2;ratioP2
8831;SDS011;4452;50.756;4.472;2022-11-20T00:01:16;276.33;;;51.75;;
8831;SDS011;4452;50.756;4.472;2022-11-20T00:03:44;238.00;;;52.80;;
8831;SDS011;4452;50.756;4.472;2022-11-20T00:06:12;305.25;;;56.10;;
8831;SDS011;4452;50.756;4.472;2022-11-20T00:08:39;268.65;;;53.13;;
8831;SDS011;4452;50.756;4.472;2022-11-20T00:11:06;270.60;;;52.50;;
8831;SDS011;4452;50.756;4.472;2022-11-20T00:13:34;284.40;;;53.22;;
8831;SDS011;4452;50.756;4.472;2022-11-20T00:16:01;249.00;;;49.25;;
8831;SDS011;4452;50.756;4.472;2022-11-20T00:18:30;227.93;;;48.53;;
8831;SDS011;4452;50.756;4.472;2022-11-20T00:23:33;228.70;;;44.15;;
8831;SDS011;4452;50.756;4.472;2022-11-20T00:26:32;220.40;;;47.50;;
8831;SDS011;4452;50.756;4.472;2022-11-20T00:28:56;249.00;;;50.10;;
8831;SDS011;4452;50.756;4.472;2022-11-20T00:31:23;249.38;;;49.38;;
8831;SDS011;4452;50.756;4.472;2022-11-20T00:33:50;243.75;;;48.85;;
8831;SDS011;4452;50.756;4.472;2022-11-20T00:36:20;217.52;;;48.45;;
8831;SDS011;4452;50.756;4.472;2022-11-20T00:38:50;288.17;;;51.13;;
8831;SDS011;4452;50.756;4.472;2022-11-20T00:41:17;265.45;;;53.85;;
8831;SDS011;4452;50.756;4.472;2022-11-20T00:43:43;234.88;;;46.90;;
8831;SDS011;4452;50.756;4.472;2022-11-20T00:46:18;199.05;;;45.47;;
8831;SDS011;4452;50.756;4.472;2022-11-20T00:48:46;194.70;;;47.20;;
8831;SDS011;4452;50.756;4.472;2022-11-20T00:51:13;239.80;;;48.75;;
8831;SDS011;4452;50.756;4.472;2022-11-20T00:53:41;229.15;;;46.47;;
8831;SDS011;4452;50.756;4.472;2022-11-20T00:56:07;187.98;;;43.63;;
8831;SDS011;4452;50.756;4.472;2022-11-20T00:58:37;189.40;;;41.75;;
8831;SDS011;4452;50.756;4.472;2022-11-20T01:01:05;275.23;;;48.17;;
8831;SDS011;4452;50.756;4.472;2022-11-20T01:03:32;246.43;;;48.75;;
8831;SDS011;4452;50.756;4.472;2022-11-20T01:06:15;201.85;;;45.45;;
8831;SDS011;4452;50.756;4.472;2022-11-20T01:08:49;194.60;;;40.60;;
8831;SDS011;4452;50.756;4.472;2022-11-20T01:11:17;188.60;;;41.05;;
8831;SDS011;4452;50.756;4.472;2022-11-20T01:13:45;199.60;;;42.53;;
8831;SDS011;4452;50.756;4.472;2022-11-20T01:16:14;201.10;;;40.65;;
8831;SDS011;4452;50.756;4.472;2022-11-20T01:18:43;186.55;;;40.55;;
8831;SDS011;4452;50.756;4.472;2022-11-20T01:21:11;202.50;;;41.97;;
8831;SDS011;4452;50.756;4.472;2022-11-20T01:23:40;219.65;;;41.53;;
8831;SDS011;4452;50.756;4.472;2022-11-20T01:26:08;179.90;;;40.35;;
8831;SDS011;4452;50.756;4.472;2022-11-20T01:28:36;188.93;;;39.10;;
8831;SDS011;4452;50.756;4.472;2022-11-20T01:31:13;203.30;;;42.90;;
8831;SDS011;4452;50.756;4.472;2022-11-20T01:33:44;200.95;;;42.33;;
8831;SDS011;4452;50.756;4.472;2022-11-20T01:36:11;213.40;;;42.75;;
8831;SDS011;4452;50.756;4.472;2022-11-20T01:38:37;224.75;;;42.05;;
8831;SDS011;4452;50.756;4.472;2022-11-20T01:41:04;219.35;;;41.80;;
8831;SDS011;4452;50.756;4.472;2022-11-20T01:43:30;219.98;;;43.03;;
8831;SDS011;4452;50.756;4.472;2022-11-20T01:46:01;218.88;;;40.00;;
8831;SDS011;4452;50.756;4.472;2022-11-20T01:48:49;209.63;;;41.38;;
8831;SDS011;4452;50.756;4.472;2022-11-20T01:51:16;239.85;;;43.03;;
8831;SDS011;4452;50.756;4.472;2022-11-20T01:53:45;233.95;;;43.42;;
8831;SDS011;4452;50.756;4.472;2022-11-20T01:56:12;213.45;;;43.17;;
8831;SDS011;4452;50.756;4.472;2022-11-20T01:58:42;225.07;;;42.47;;
8831;SDS011;4452;50.756;4.472;2022-11-20T02:01:12;217.75;;;43.08;;
8831;SDS011;4452;50.756;4.472;2022-11-20T02:03:39;227.35;;;45.00;;
8831;SDS011;4452;50.756;4.472;2022-11-20T02:08:37;264.73;;;46.25;;
8831;SDS011;4452;50.756;4.472;2022-11-20T02:11:03;230.30;;;44.65;;
8831;SDS011;4452;50.756;4.472;2022-11-20T02:13:28;269.17;;;45.63;;
8831;SDS011;4452;50.756;4.472;2022-11-20T02:16:16;253.98;;;43.47;;
8831;SDS011;4452;50.756;4.472;2022-11-20T02:18:47;239.55;;;43.40;;
8831;SDS011;4452;50.756;4.472;2022-11-20T02:21:15;251.65;;;43.75;;
8831;SDS011;4452;50.756;4.472;2022-11-20T02:26:41;210.85;;;42.05;;
8831;SDS011;4452;50.756;4.472;2022-11-20T02:29:15;230.63;;;46.78;;
8831;SDS011;4452;50.756;4.472;2022-11-20T02:31:44;180.43;;;40.42;;
8831;SDS011;4452;50.756;4.472;2022-11-20T02:34:10;200.30;;;41.78;;
8831;SDS011;4452;50.756;4.472;2022-11-20T02:36:36;205.43;;;43.75;;
8831;SDS011;4452;50.756;4.472;2022-11-20T02:39:05;183.10;;;38.75;;
8831;SDS011;4452;50.756;4.472;2022-11-20T02:41:35;173.23;;;39.35;;
8831;SDS011;4452;50.756;4.472;2022-11-20T02:44:02;148.27;;;34.15;;
8831;SDS011;4452;50.756;4.472;2022-11-20T02:46:29;141.68;;;31.67;;
8831;SDS011;4452;50.756;4.472;2022-11-20T02:48:56;157.45;;;36.50;;
8831;SDS011;4452;50.756;4.472;2022-11-20T02:51:21;161.30;;;33.05;;
8831;SDS011;4452;50.756;4.472;2022-11-20T02:53:47;128.45;;;31.50;;
8831;SDS011;4452;50.756;4.472;2022-11-20T02:56:13;151.55;;;33.22;;
8831;SDS011;4452;50.756;4.472;2022-11-20T02:58:38;151.90;;;32.92;;
8831;SDS011;4452;50.756;4.472;2022-11-20T03:01:04;126.90;;;28.52;;
8831;SDS011;4452;50.756;4.472;2022-11-20T03:03:30;133.73;;;29.42;;
8831;SDS011;4452;50.756;4.472;2022-11-20T03:05:58;118.57;;;25.90;;
8831;SDS011;4452;50.756;4.472;2022-11-20T03:08:24;136.52;;;29.45;;
8831;SDS011;4452;50.756;4.472;2022-11-20T03:10:49;144.00;;;31.25;;
8831;SDS011;4452;50.756;4.472;2022-11-20T03:13:15;142.48;;;31.65;;
8831;SDS011;4452;50.756;4.472;2022-11-20T03:15:41;152.20;;;32.88;;
8831;SDS011;4452;50.756;4.472;2022-11-20T03:18:06;139.88;;;31.90;;
8831;SDS011;4452;50.756;4.472;2022-11-20T03:20:33;139.77;;;29.90;;
8831;SDS011;4452;50.756;4.472;2022-11-20T03:22:59;137.23;;;30.90;;
8831;SDS011;4452;50.756;4.472;2022-11-20T03:25:24;129.15;;;30.35;;
8831;SDS011;4452;50.756;4.472;2022-11-20T03:27:50;132.73;;;31.60;;
8831;SDS011;4452;50.756;4.472;2022-11-20T03:30:16;144.18;;;31.35;;
8831;SDS011;4452;50.756;4.472;2022-11-20T03:32:42;135.82;;;31.45;;
8831;SDS011;4452;50.756;4.472;2022-11-20T03:35:08;149.55;;;31.40;;
8831;SDS011;4452;50.756;4.472;2022-11-20T03:37:34;145.75;;;33.15;;
8831;SDS011;4452;50.756;4.472;2022-11-20T03:40:00;149.70;;;31.45;;
8831;SDS011;4452;50.756;4.472;2022-11-20T03:42:25;143.48;;;30.83;;
8831;SDS011;4452;50.756;4.472;2022-11-20T03:45:09;146.70;;;32.30;;
8831;SDS011;4452;50.756;4.472;2022-11-20T03:47:35;125.55;;;30.25;;
8831;SDS011;4452;50.756;4.472;2022-11-20T03:50:01;146.30;;;31.15;;
8831;SDS011;4452;50.756;4.472;2022-11-20T03:52:28;126.72;;;30.33;;
8831;SDS011;4452;50.756;4.472;2022-11-20T03:54:53;139.45;;;29.23;;
8831;SDS011;4452;50.756;4.472;2022-11-20T03:57:19;136.57;;;30.40;;
8831;SDS011;4452;50.756;4.472;2022-11-20T03:59:45;131.75;;;29.25;;
8831;SDS011;4452;50.756;4.472;2022-11-20T04:02:10;130.45;;;29.98;;
8831;SDS011;4452;50.756;4.472;2022-11-20T04:04:36;125.00;;;28.15;;
8831;SDS011;4452;50.756;4.472;2022-11-20T04:07:02;120.85;;;28.77;;
8831;SDS011;4452;50.756;4.472;2022-11-20T04:09:27;121.05;;;28.45;;
8831;SDS011;4452;50.756;4.472;2022-11-20T04:11:53;128.20;;;30.40;;
8831;SDS011;4452;50.756;4.472;2022-11-20T04:14:19;141.32;;;31.00;;
8831;SDS011;4452;50.756;4.472;2022-11-20T04:16:45;126.65;;;28.67;;
8831;SDS011;4452;50.756;4.472;2022-11-20T04:19:11;89.53;;;20.80;;
8831;SDS011;4452;50.756;4.472;2022-11-20T04:21:39;137.48;;;30.63;;
8831;SDS011;4452;50.756;4.472;2022-11-20T04:24:06;114.22;;;27.17;;
8831;SDS011;4452;50.756;4.472;2022-11-20T04:26:32;133.65;;;30.65;;
8831;SDS011;4452;50.756;4.472;2022-11-20T04:28:58;137.20;;;30.98;;
8831;SDS011;4452;50.756;4.472;2022-11-20T04:31:26;141.48;;;30.40;;
8831;SDS011;4452;50.756;4.472;2022-11-20T04:33:54;129.07;;;29.27;;
8831;SDS011;4452;50.756;4.472;2022-11-20T04:36:20;144.07;;;31.85;;
8831;SDS011;4452;50.756;4.472;2022-11-20T04:38:54;140.95;;;31.10;;
8831;SDS011;4452;50.756;4.472;2022-11-20T04:41:25;130.80;;;30.17;;
8831;SDS011;4452;50.756;4.472;2022-11-20T04:43:54;160.88;;;32.83;;
8831;SDS011;4452;50.756;4.472;2022-11-20T04:46:27;139.30;;;31.45;;
8831;SDS011;4452;50.756;4.472;2022-11-20T04:48:54;152.25;;;31.08;;
8831;SDS011;4452;50.756;4.472;2022-11-20T04:51:20;146.40;;;31.00;;
8831;SDS011;4452;50.756;4.472;2022-11-20T04:53:46;160.02;;;32.58;;
8831;SDS011;4452;50.756;4.472;2022-11-20T04:56:12;171.48;;;33.97;;
8831;SDS011;4452;50.756;4.472;2022-11-20T04:58:39;167.65;;;31.73;;
8831;SDS011;4452;50.756;4.472;2022-11-20T05:03:41;172.45;;;32.63;;
8831;SDS011;4452;50.756;4.472;2022-11-20T05:06:08;172.52;;;34.20;;
8831;SDS011;4452;50.756;4.472;2022-11-20T05:08:35;221.73;;;34.60;;
8831;SDS011;4452;50.756;4.472;2022-11-20T05:11:08;181.90;;;33.05;;
8831;SDS011;4452;50.756;4.472;2022-11-20T05:13:36;200.57;;;34.22;;
8831;SDS011;4452;50.756;4.472;2022-11-20T05:16:03;284.13;;;35.97;;
8831;SDS011;4452;50.756;4.472;2022-11-20T05:18:30;309.23;;;37.38;;
8831;SDS011;4452;50.756;4.472;2022-11-20T05:20:57;268.27;;;37.33;;
8831;SDS011;4452;50.756;4.472;2022-11-20T05:23:23;228.00;;;35.10;;
8831;SDS011;4452;50.756;4.472;2022-11-20T05:25:53;241.65;;;33.95;;
8831;SDS011;4452;50.756;4.472;2022-11-20T05:28:20;296.42;;;37.08;;
8831;SDS011;4452;50.756;4.472;2022-11-20T05:30:46;243.50;;;32.53;;
8831;SDS011;4452;50.756;4.472;2022-11-20T05:33:12;271.63;;;35.33;;
8831;SDS011;4452;50.756;4.472;2022-11-20T05:35:38;292.67;;;37.05;;
8831;SDS011;4452;50.756;4.472;2022-11-20T05:38:04;295.52;;;37.00;;
8831;SDS011;4452;50.756;4.472;2022-11-20T05:40:29;288.73;;;34.70;;
8831;SDS011;4452;50.756;4.472;2022-11-20T05:42:55;308.42;;;38.80;;
8831;SDS011;4452;50.756;4.472;2022-11-20T05:45:21;301.65;;;38.63;;
8831;SDS011;4452;50.756;4.472;2022-11-20T05:47:46;397.10;;;41.72;;
8831;SDS011;4452;50.756;4.472;2022-11-20T05:50:13;299.02;;;39.78;;
8831;SDS011;4452;50.756;4.472;2022-11-20T05:52:39;322.60;;;35.47;;
8831;SDS011;4452;50.756;4.472;2022-11-20T05:55:05;346.52;;;37.50;;
8831;SDS011;4452;50.756;4.472;2022-11-20T05:57:32;326.15;;;40.33;;
8831;SDS011;4452;50.756;4.472;2022-11-20T05:59:57;385.35;;;39.63;;
8831;SDS011;4452;50.756;4.472;2022-11-20T06:02:23;470.67;;;42.63;;
8831;SDS011;4452;50.756;4.472;2022-11-20T06:04:49;485.17;;;42.42;;
8831;SDS011;4452;50.756;4.472;2022-11-20T06:07:14;460.38;;;43.20;;
8831;SDS011;4452;50.756;4.472;2022-11-20T06:09:40;342.58;;;38.63;;
8831;SDS011;4452;50.756;4.472;2022-11-20T06:12:06;298.38;;;40.70;;
8831;SDS011;4452;50.756;4.472;2022-11-20T06:14:32;484.27;;;45.95;;
8831;SDS011;4452;50.756;4.472;2022-11-20T06:16:58;667.85;;;58.83;;
8831;SDS011;4452;50.756;4.472;2022-11-20T06:19:23;580.78;;;54.00;;
8831;SDS011;4452;50.756;4.472;2022-11-20T06:21:49;410.23;;;43.10;;
8831;SDS011;4452;50.756;4.472;2022-11-20T06:24:15;563.72;;;46.28;;
8831;SDS011;4452;50.756;4.472;2022-11-20T06:26:41;608.47;;;47.80;;
8831;SDS011;4452;50.756;4.472;2022-11-20T06:29:07;545.22;;;47.67;;
8831;SDS011;4452;50.756;4.472;2022-11-20T06:31:33;485.67;;;45.60;;
8831;SDS011;4452;50.756;4.472;2022-11-20T06:34:00;484.63;;;46.92;;
8831;SDS011;4452;50.756;4.472;2022-11-20T06:36:26;383.30;;;43.15;;
8831;SDS011;4452;50.756;4.472;2022-11-20T06:38:52;360.98;;;42.17;;
8831;SDS011;4452;50.756;4.472;2022-11-20T06:41:19;341.85;;;41.63;;
8831;SDS011;4452;50.756;4.472;2022-11-20T06:43:45;307.17;;;39.08;;
8831;SDS011;4452;50.756;4.472;2022-11-20T06:46:12;343.23;;;39.42;;
8831;SDS011;4452;50.756;4.472;2022-11-20T06:48:39;418.77;;;41.78;;
8831;SDS011;4452;50.756;4.472;2022-11-20T06:51:05;300.38;;;39.40;;
8831;SDS011;4452;50.756;4.472;2022-11-20T06:53:32;283.20;;;38.10;;
8831;SDS011;4452;50.756;4.472;2022-11-20T06:55:59;213.98;;;32.25;;
8831;SDS011;4452;50.756;4.472;2022-11-20T06:58:28;273.00;;;38.72;;
8831;SDS011;4452;50.756;4.472;2022-11-20T07:00:58;272.42;;;39.28;;
8831;SDS011;4452;50.756;4.472;2022-11-20T07:03:25;311.67;;;40.50;;
8831;SDS011;4452;50.756;4.472;2022-11-20T07:05:51;273.55;;;39.45;;
8831;SDS011;4452;50.756;4.472;2022-11-20T07:08:18;259.27;;;38.28;;
8831;SDS011;4452;50.756;4.472;2022-11-20T07:10:44;311.13;;;40.30;;
8831;SDS011;4452;50.756;4.472;2022-11-20T07:13:10;315.83;;;40.00;;
8831;SDS011;4452;50.756;4.472;2022-11-20T07:15:35;273.00;;;39.30;;
8831;SDS011;4452;50.756;4.472;2022-11-20T07:18:01;266.80;;;41.60;;
8831;SDS011;4452;50.756;4.472;2022-11-20T07:20:27;279.55;;;39.55;;
8831;SDS011;4452;50.756;4.472;2022-11-20T07:22:54;285.17;;;39.92;;
8831;SDS011;4452;50.756;4.472;2022-11-20T07:25:20;283.10;;;40.47;;
8831;SDS011;4452;50.756;4.472;2022-11-20T07:27:47;272.15;;;40.03;;
8831;SDS011;4452;50.756;4.472;2022-11-20T07:30:13;293.13;;;39.65;;
8831;SDS011;4452;50.756;4.472;2022-11-20T07:32:40;274.60;;;39.20;;
8831;SDS011;4452;50.756;4.472;2022-11-20T07:35:05;293.88;;;40.83;;
8831;SDS011;4452;50.756;4.472;2022-11-20T07:37:33;281.98;;;39.85;;
8831;SDS011;4452;50.756;4.472;2022-11-20T07:40:00;280.70;;;38.63;;
8831;SDS011;4452;50.756;4.472;2022-11-20T07:42:26;285.73;;;39.17;;
8831;SDS011;4452;50.756;4.472;2022-11-20T07:44:51;360.55;;;42.38;;
8831;SDS011;4452;50.756;4.472;2022-11-20T07:47:17;303.25;;;42.53;;
8831;SDS011;4452;50.756;4.472;2022-11-20T07:49:43;397.20;;;44.22;;
8831;SDS011;4452;50.756;4.472;2022-11-20T07:52:08;335.10;;;41.78;;
8831;SDS011;4452;50.756;4.472;2022-11-20T07:54:34;347.25;;;40.65;;
8831;SDS011;4452;50.756;4.472;2022-11-20T07:56:59;349.52;;;42.03;;
8831;SDS011;4452;50.756;4.472;2022-11-20T07:59:25;417.52;;;42.97;;
8831;SDS011;4452;50.756;4.472;2022-11-20T08:01:50;301.75;;;40.65;;
8831;SDS011;4452;50.756;4.472;2022-11-20T08:04:16;338.92;;;40.35;;
8831;SDS011;4452;50.756;4.472;2022-11-20T08:06:42;397.83;;;41.83;;
8831;SDS011;4452;50.756;4.472;2022-11-20T08:09:07;435.40;;;44.45;;
8831;SDS011;4452;50.756;4.472;2022-11-20T08:11:33;393.17;;;42.88;;
8831;SDS011;4452;50.756;4.472;2022-11-20T08:14:17;417.40;;;44.63;;
8831;SDS011;4452;50.756;4.472;2022-11-20T08:16:44;431.50;;;43.85;;
8831;SDS011;4452;50.756;4.472;2022-11-20T08:19:11;368.65;;;47.28;;
8831;SDS011;4452;50.756;4.472;2022-11-20T08:21:37;448.55;;;44.45;;
8831;SDS011;4452;50.756;4.472;2022-11-20T08:24:03;527.33;;;49.53;;
8831;SDS011;4452;50.756;4.472;2022-11-20T08:26:29;383.17;;;46.92;;
8831;SDS011;4452;50.756;4.472;2022-11-20T08:28:55;513.28;;;45.08;;
8831;SDS011;4452;50.756;4.472;2022-11-20T08:31:22;406.35;;;42.20;;
8831;SDS011;4452;50.756;4.472;2022-11-20T08:33:49;468.08;;;46.50;;
8831;SDS011;4452;50.756;4.472;2022-11-20T08:36:15;366.00;;;41.88;;
8831;SDS011;4452;50.756;4.472;2022-11-20T08:38:41;427.77;;;43.05;;
8831;SDS011;4452;50.756;4.472;2022-11-20T08:41:06;555.17;;;56.25;;
8831;SDS011;4452;50.756;4.472;2022-11-20T08:43:55;544.38;;;84.50;;
8831;SDS011;4452;50.756;4.472;2022-11-20T08:46:26;417.15;;;51.08;;
8831;SDS011;4452;50.756;4.472;2022-11-20T08:48:58;404.98;;;44.88;;
8831;SDS011;4452;50.756;4.472;2022-11-20T08:51:23;418.88;;;44.17;;
8831;SDS011;4452;50.756;4.472;2022-11-20T08:53:49;265.08;;;37.70;;
8831;SDS011;4452;50.756;4.472;2022-11-20T08:56:15;275.05;;;34.08;;
8831;SDS011;4452;50.756;4.472;2022-11-20T08:58:41;277.90;;;33.20;;
8831;SDS011;4452;50.756;4.472;2022-11-20T09:01:07;367.75;;;39.15;;
8831;SDS011;4452;50.756;4.472;2022-11-20T09:03:32;283.77;;;32.10;;
8831;SDS011;4452;50.756;4.472;2022-11-20T09:05:59;296.40;;;39.00;;
8831;SDS011;4452;50.756;4.472;2022-11-20T09:08:26;284.00;;;37.90;;
8831;SDS011;4452;50.756;4.472;2022-11-20T09:10:53;235.00;;;33.75;;
8831;SDS011;4452;50.756;4.472;2022-11-20T09:13:20;241.35;;;33.95;;
8831;SDS011;4452;50.756;4.472;2022-11-20T09:15:47;268.10;;;35.97;;
8831;SDS011;4452;50.756;4.472;2022-11-20T09:18:12;201.02;;;31.02;;
8831;SDS011;4452;50.756;4.472;2022-11-20T09:20:38;243.68;;;34.85;;
8831;SDS011;4452;50.756;4.472;2022-11-20T09:23:03;196.18;;;30.98;;
8831;SDS011;4452;50.756;4.472;2022-11-20T09:25:29;206.77;;;34.03;;
8831;SDS011;4452;50.756;4.472;2022-11-20T09:27:58;189.23;;;32.22;;
8831;SDS011;4452;50.756;4.472;2022-11-20T09:30:24;185.32;;;31.77;;
8831;SDS011;4452;50.756;4.472;2022-11-20T09:32:51;182.38;;;32.85;;
8831;SDS011;4452;50.756;4.472;2022-11-20T09:35:16;180.65;;;33.90;;
8831;SDS011;4452;50.756;4.472;2022-11-20T09:37:43;157.35;;;32.67;;
8831;SDS011;4452;50.756;4.472;2022-11-20T09:40:28;141.05;;;29.48;;
8831;SDS011;4452;50.756;4.472;2022-11-20T09:56:39;104.47;;;26.50;;
8831;SDS011;4452;50.756;4.472;2022-11-20T09:59:46;105.22;;;27.02;;
8831;SDS011;4452;50.756;4.472;2022-11-20T10:04:49;82.82;;;23.50;;
8831;SDS011;4452;50.756;4.472;2022-11-20T10:07:25;68.00;;;20.53;;
8831;SDS011;4452;50.756;4.472;2022-11-20T10:09:57;73.03;;;20.30;;
8831;SDS011;4452;50.756;4.472;2022-11-20T10:21:30;28.10;;;9.82;;
8831;SDS011;4452;50.756;4.472;2022-11-20T10:29:40;27.98;;;10.82;;
8831;SDS011;4452;50.756;4.472;2022-11-20T10:32:13;14.77;;;7.10;;
8831;SDS011;4452;50.756;4.472;2022-11-20T10:42:44;13.90;;;7.45;;
8831;SDS011;4452;50.756;4.472;2022-11-20T10:50:59;10.50;;;5.28;;
8831;SDS011;4452;50.756;4.472;2022-11-20T10:56:25;6.57;;;4.18;;
8831;SDS011;4452;50.756;4.472;2022-11-20T11:02:18;10.80;;;4.60;;
8831;SDS011;4452;50.756;4.472;2022-11-20T11:04:52;8.93;;;4.97;;
8831;SDS011;4452;50.756;4.472;2022-11-20T11:07:22;10.60;;;4.28;;
8831;SDS011;4452;50.756;4.472;2022-11-20T11:10:39;10.77;;;4.93;;
8831;SDS011;4452;50.756;4.472;2022-11-20T11:12:55;6.22;;;3.72;;
8831;SDS011;4452;50.756;4.472;2022-11-20T11:15:25;9.40;;;3.55;;
8831;SDS011;4452;50.756;4.472;2022-11-20T11:17:53;9.82;;;3.40;;
8831;SDS011;4452;50.756;4.472;2022-11-20T11:20:21;6.07;;;3.17;;
8831;SDS011;4452;50.756;4.472;2022-11-20T11:22:49;10.98;;;3.20;;
8831;SDS011;4452;50.756;4.472;2022-11-20T11:25:24;11.18;;;4.60;;
8831;SDS011;4452;50.756;4.472;2022-11-20T11:27:50;10.30;;;4.05;;
8831;SDS011;4452;50.756;4.472;2022-11-20T11:30:17;13.52;;;3.22;;
8831;SDS011;4452;50.756;4.472;2022-11-20T11:32:45;3.97;;;2.60;;
8831;SDS011;4452;50.756;4.472;2022-11-20T11:35:26;2.80;;;2.28;;
8831;SDS011;4452;50.756;4.472;2022-11-20T11:37:54;4.07;;;2.60;;
8831;SDS011;4452;50.756;4.472;2022-11-20T11:40:28;3.70;;;2.15;;
8831;SDS011;4452;50.756;4.472;2022-11-20T11:42:57;6.53;;;3.63;;
8831;SDS011;4452;50.756;4.472;2022-11-20T11:45:26;9.38;;;3.22;;
8831;SDS011;4452;50.756;4.472;2022-11-20T11:47:53;6.90;;;3.40;;
8831;SDS011;4452;50.756;4.472;2022-11-20T11:50:25;8.63;;;3.53;;
8831;SDS011;4452;50.756;4.472;2022-11-20T11:53:14;5.70;;;2.35;;
8831;SDS011;4452;50.756;4.472;2022-11-20T11:55:53;6.95;;;3.47;;
8831;SDS011;4452;50.756;4.472;2022-11-20T12:06:48;4.28;;;2.42;;
8831;SDS011;4452;50.756;4.472;2022-11-20T12:09:18;11.30;;;3.88;;
8831;SDS011;4452;50.756;4.472;2022-11-20T12:14:42;7.45;;;3.00;;
8831;SDS011;4452;50.756;4.472;2022-11-20T12:17:11;6.65;;;3.10;;
8831;SDS011;4452;50.756;4.472;2022-11-20T12:19:38;8.02;;;3.20;;
8831;SDS011;4452;50.756;4.472;2022-11-20T12:22:09;5.97;;;2.40;;
8831;SDS011;4452;50.756;4.472;2022-11-20T12:30:09;11.40;;;2.95;;
8831;SDS011;4452;50.756;4.472;2022-11-20T12:41:15;4.30;;;2.35;;
8831;SDS011;4452;50.756;4.472;2022-11-20T12:55:36;10.38;;;3.72;;
8831;SDS011;4452;50.756;4.472;2022-11-20T13:04:06;8.90;;;3.58;;
8831;SDS011;4452;50.756;4.472;2022-11-20T13:06:37;5.65;;;3.10;;
8831;SDS011;4452;50.756;4.472;2022-11-20T13:09:06;9.65;;;4.10;;
8831;SDS011;4452;50.756;4.472;2022-11-20T13:14:37;12.75;;;5.20;;
8831;SDS011;4452;50.756;4.472;2022-11-20T13:17:19;4.20;;;2.75;;
8831;SDS011;4452;50.756;4.472;2022-11-20T13:19:51;4.65;;;3.25;;
8831;SDS011;4452;50.756;4.472;2022-11-20T13:22:29;7.63;;;4.28;;
8831;SDS011;4452;50.756;4.472;2022-11-20T13:25:09;10.90;;;5.30;;
8831;SDS011;4452;50.756;4.472;2022-11-20T13:27:35;4.97;;;3.15;;
8831;SDS011;4452;50.756;4.472;2022-11-20T13:30:13;5.88;;;2.92;;
8831;SDS011;4452;50.756;4.472;2022-11-20T13:35:54;9.00;;;4.63;;
8831;SDS011;4452;50.756;4.472;2022-11-20T13:38:22;10.40;;;5.18;;
8831;SDS011;4452;50.756;4.472;2022-11-20T13:43:22;15.38;;;4.90;;
8831;SDS011;4452;50.756;4.472;2022-11-20T13:46:03;6.28;;;4.00;;
8831;SDS011;4452;50.756;4.472;2022-11-20T13:48:34;5.45;;;3.53;;
8831;SDS011;4452;50.756;4.472;2022-11-20T14:02:14;5.05;;;2.40;;
8831;SDS011;4452;50.756;4.472;2022-11-20T14:04:46;6.85;;;4.28;;
8831;SDS011;4452;50.756;4.472;2022-11-20T14:07:14;4.75;;;3.10;;
8831;SDS011;4452;50.756;4.472;2022-11-20T14:09:49;4.22;;;2.30;;
8831;SDS011;4452;50.756;4.472;2022-11-20T14:12:17;8.38;;;2.78;;
8831;SDS011;4452;50.756;4.472;2022-11-20T14:14:49;2.38;;;2.17;;
8831;SDS011;4452;50.756;4.472;2022-11-20T14:17:21;2.85;;;2.60;;
8831;SDS011;4452;50.756;4.472;2022-11-20T14:19:50;2.40;;;2.20;;
8831;SDS011;4452;50.756;4.472;2022-11-20T14:24:45;1.73;;;1.55;;
8831;SDS011;4452;50.756;4.472;2022-11-20T14:27:12;2.60;;;2.08;;
8831;SDS011;4452;50.756;4.472;2022-11-20T14:29:41;5.50;;;3.50;;
8831;SDS011;4452;50.756;4.472;2022-11-20T14:32:08;3.47;;;2.08;;
8831;SDS011;4452;50.756;4.472;2022-11-20T14:34:38;2.78;;;2.55;;
8831;SDS011;4452;50.756;4.472;2022-11-20T14:37:09;3.72;;;2.22;;
8831;SDS011;4452;50.756;4.472;2022-11-20T14:39:40;2.72;;;2.53;;
8831;SDS011;4452;50.756;4.472;2022-11-20T14:42:14;4.07;;;2.72;;
8831;SDS011;4452;50.756;4.472;2022-11-20T14:44:41;2.45;;;2.25;;
8831;SDS011;4452;50.756;4.472;2022-11-20T14:47:08;4.55;;;2.92;;
8831;SDS011;4452;50.756;4.472;2022-11-20T14:49:36;2.83;;;1.83;;
8831;SDS011;4452;50.756;4.472;2022-11-20T14:52:09;4.13;;;2.67;;
8831;SDS011;4452;50.756;4.472;2022-11-20T14:54:51;4.47;;;3.42;;
8831;SDS011;4452;50.756;4.472;2022-11-20T15:00:33;3.58;;;3.28;;
8831;SDS011;4452;50.756;4.472;2022-11-20T15:02:52;3.20;;;2.30;;
8831;SDS011;4452;50.756;4.472;2022-11-20T15:05:19;6.00;;;3.05;;
8831;SDS011;4452;50.756;4.472;2022-11-20T15:08:08;6.63;;;3.72;;
8831;SDS011;4452;50.756;4.472;2022-11-20T15:10:35;5.93;;;3.95;;
8831;SDS011;4452;50.756;4.472;2022-11-20T15:13:06;12.40;;;4.30;;
8831;SDS011;4452;50.756;4.472;2022-11-20T15:18:19;10.73;;;4.70;;
8831;SDS011;4452;50.756;4.472;2022-11-20T15:20:47;7.53;;;4.30;;
8831;SDS011;4452;50.756;4.472;2022-11-20T15:23:15;7.60;;;3.83;;
8831;SDS011;4452;50.756;4.472;2022-11-20T15:25:43;6.28;;;4.55;;
8831;SDS011;4452;50.756;4.472;2022-11-20T15:28:16;9.77;;;4.93;;
8831;SDS011;4452;50.756;4.472;2022-11-20T15:30:43;4.68;;;3.65;;
8831;SDS011;4452;50.756;4.472;2022-11-20T15:33:10;4.63;;;3.60;;
8831;SDS011;4452;50.756;4.472;2022-11-20T15:35:36;4.95;;;3.55;;
8831;SDS011;4452;50.756;4.472;2022-11-20T15:38:01;7.80;;;4.43;;
8831;SDS011;4452;50.756;4.472;2022-11-20T15:40:27;6.60;;;4.10;;
8831;SDS011;4452;50.756;4.472;2022-11-20T15:42:53;11.98;;;4.25;;
8831;SDS011;4452;50.756;4.472;2022-11-20T15:48:15;12.32;;;4.38;;
8831;SDS011;4452;50.756;4.472;2022-11-20T15:53:19;13.75;;;3.60;;
8831;SDS011;4452;50.756;4.472;2022-11-20T15:55:47;7.57;;;4.70;;
8831;SDS011;4452;50.756;4.472;2022-11-20T15:58:13;4.88;;;3.75;;
8831;SDS011;4452;50.756;4.472;2022-11-20T16:00:41;5.78;;;3.85;;
8831;SDS011;4452;50.756;4.472;2022-11-20T16:03:09;8.90;;;4.45;;
8831;SDS011;4452;50.756;4.472;2022-11-20T16:05:36;6.22;;;4.28;;
8831;SDS011;4452;50.756;4.472;2022-11-20T16:08:02;6.80;;;3.80;;
8831;SDS011;4452;50.756;4.472;2022-11-20T16:10:27;6.68;;;3.83;;
8831;SDS011;4452;50.756;4.472;2022-11-20T16:12:53;14.68;;;5.00;;
8831;SDS011;4452;50.756;4.472;2022-11-20T16:15:38;9.25;;;4.65;;
8831;SDS011;4452;50.756;4.472;2022-11-20T16:18:10;12.85;;;3.92;;
8831;SDS011;4452;50.756;4.472;2022-11-20T16:20:37;8.10;;;3.25;;
8831;SDS011;4452;50.756;4.472;2022-11-20T16:23:03;4.43;;;3.45;;
8831;SDS011;4452;50.756;4.472;2022-11-20T16:25:30;9.02;;;3.78;;
8831;SDS011;4452;50.756;4.472;2022-11-20T16:27:56;15.52;;;4.38;;
8831;SDS011;4452;50.756;4.472;2022-11-20T16:30:22;16.38;;;4.72;;
8831;SDS011;4452;50.756;4.472;2022-11-20T16:32:47;19.13;;;5.95;;
8831;SDS011;4452;50.756;4.472;2022-11-20T16:35:14;13.20;;;3.80;;
8831;SDS011;4452;50.756;4.472;2022-11-20T16:37:39;15.55;;;4.90;;
8831;SDS011;4452;50.756;4.472;2022-11-20T16:40:07;8.35;;;3.50;;
8831;SDS011;4452;50.756;4.472;2022-11-20T16:42:33;17.45;;;5.10;;
8831;SDS011;4452;50.756;4.472;2022-11-20T16:44:59;16.60;;;4.82;;
8831;SDS011;4452;50.756;4.472;2022-11-20T16:47:25;11.88;;;4.95;;
8831;SDS011;4452;50.756;4.472;2022-11-20T16:49:51;11.30;;;3.63;;
8831;SDS011;4452;50.756;4.472;2022-11-20T16:52:17;14.55;;;5.45;;
8831;SDS011;4452;50.756;4.472;2022-11-20T16:54:42;14.55;;;4.63;;
8831;SDS011;4452;50.756;4.472;2022-11-20T16:57:08;11.82;;;4.10;;
8831;SDS011;4452;50.756;4.472;2022-11-20T16:59:33;13.45;;;4.95;;
8831;SDS011;4452;50.756;4.472;2022-11-20T17:01:59;13.32;;;5.38;;
8831;SDS011;4452;50.756;4.472;2022-11-20T17:04:25;19.70;;;4.57;;
8831;SDS011;4452;50.756;4.472;2022-11-20T17:06:51;12.43;;;5.05;;
8831;SDS011;4452;50.756;4.472;2022-11-20T17:09:16;14.13;;;4.38;;
8831;SDS011;4452;50.756;4.472;2022-11-20T17:11:42;17.25;;;4.00;;